Time;durP1;ratioP1;P1;durP2;ratioP2;P2;SDS_P1;SDS_P2;PMS_P1;PMS_P2;Temp;Humidity;BMP_temperature;BMP_pressure;BME280_temperature;BME280_humidity;BME280_pressure;Samples;Min_cycle;Max_cycle;Signal;HPM_P1;HPM_P2
2022/08/16 00:00:40;;;;;;;;;40.25;35.50;;;;;21.52;100.00;100359.75;6214099;22;45485;-82
2022/08/16 00:03:08;;;;;;;;;38.00;35.00;;;;;21.49;100.00;100365.50;6215863;22;45467;-80
2022/08/16 00:05:34;;;;;;;;;40.67;36.00;;;;;21.48;100.00;100355.72;6218167;22;44810;-82
2022/08/16 00:07:59;;;;;;;;;40.67;35.00;;;;;21.43;100.00;100361.66;6218474;22;44756;-80
2022/08/16 00:10:28;;;;;;;;;41.00;35.00;;;;;21.40;100.00;100366.59;6214247;22;44717;-82
2022/08/16 00:12:54;;;;;;;;;37.75;34.25;;;;;21.38;100.00;100374.06;6216576;22;45575;-81
2022/08/16 00:15:24;;;;;;;;;41.25;35.00;;;;;21.36;100.00;100376.09;6216430;22;44723;-81
2022/08/16 00:17:50;;;;;;;;;39.00;35.25;;;;;21.34;100.00;100376.28;6215993;22;44789;-82
2022/08/16 00:20:15;;;;;;;;;42.67;35.67;;;;;21.35;100.00;100380.66;6215651;22;45252;-81
2022/08/16 00:22:42;;;;;;;;;38.75;33.75;;;;;21.32;100.00;100372.91;6215511;22;45130;-81
2022/08/16 00:25:12;;;;;;;;;38.75;33.75;;;;;21.32;100.00;100383.69;6215378;22;44870;-81
2022/08/16 00:27:38;;;;;;;;;34.25;32.50;;;;;21.30;100.00;100388.44;6216720;22;44761;-80
2022/08/16 00:30:06;;;;;;;;;34.75;33.00;;;;;21.30;100.00;100380.31;6197452;22;44726;-81
2022/08/16 00:32:31;;;;;;;;;38.67;36.00;;;;;21.26;100.00;100385.25;6235553;22;45275;-80
2022/08/16 00:34:57;;;;;;;;;34.50;33.50;;;;;21.26;100.00;100385.25;6234847;22;44647;-82
2022/08/16 00:37:24;;;;;;;;;36.25;32.25;;;;;21.28;100.00;100385.91;6234873;22;44942;-82
2022/08/16 00:39:49;;;;;;;;;42.00;36.25;;;;;21.30;100.00;100383.03;6236841;22;45400;-81
2022/08/16 00:42:17;;;;;;;;;41.50;36.25;;;;;21.31;100.00;100382.03;6207490;22;45406;-80
2022/08/16 00:44:48;;;;;;;;;39.00;35.25;;;;;21.35;100.00;100383.34;6230706;22;44699;-81
2022/08/16 00:47:17;;;;;;;;;39.50;35.25;;;;;21.38;100.00;100379.47;6231656;22;44789;-80
2022/08/16 00:49:42;;;;;;;;;36.00;33.33;;;;;21.38;100.00;100382.16;6231129;22;45275;-81
2022/08/16 00:52:08;;;;;;;;;39.00;34.00;;;;;21.39;100.00;100379.25;6229317;22;44843;-81
2022/08/16 00:54:34;;;;;;;;;37.50;34.50;;;;;21.40;100.00;100375.53;6221349;22;44801;-81
2022/08/16 00:57:01;;;;;;;;;41.50;34.25;;;;;21.42;100.00;100373.50;6220718;22;45279;-80
2022/08/16 00:59:29;;;;;;;;;37.25;33.00;;;;;21.43;100.00;100367.06;6219668;22;44763;-81
2022/08/16 01:01:55;;;;;;;;;35.00;33.00;;;;;21.43;100.00;100369.78;6216194;22;44955;-80
2022/08/16 01:04:23;;;;;;;;;41.75;34.25;;;;;21.40;100.00;100361.19;6216699;22;44663;-82
2022/08/16 01:06:49;;;;;;;;;40.50;35.75;;;;;21.39;100.00;100363.06;6187203;22;45221;-81
2022/08/16 01:09:16;;;;;;;;;32.50;31.50;;;;;21.36;100.00;100357.16;6213607;22;45242;-80
2022/08/16 01:11:41;;;;;;;;;41.00;34.25;;;;;21.32;100.00;100356.69;6215001;22;45099;-81
2022/08/16 01:14:18;;;;;;;;;34.00;31.50;;;;;21.29;100.00;100365.97;6214396;22;45415;-80
2022/08/16 01:16:46;;;;;;;;;38.75;35.50;;;;;21.27;100.00;100356.34;6212964;22;45295;-80
2022/08/16 01:19:20;;;;;;;;;35.50;33.25;;;;;21.23;100.00;100355.91;6213684;22;45272;-81
2022/08/16 01:22:21;;;;;;;;;34.75;32.50;;;;;21.20;100.00;100356.25;6212550;22;45295;-81
2022/08/16 01:24:51;;;;;;;;;34.75;32.50;;;;;21.19;100.00;100353.75;6211559;22;45184;-81
2022/08/16 01:27:22;;;;;;;;;32.25;32.00;;;;;21.19;100.00;100359.97;6185650;22;45225;-80
2022/08/16 01:29:57;;;;;;;;;42.50;34.50;;;;;21.18;100.00;100366.41;6213417;22;44627;-80
2022/08/16 01:32:23;;;;;;;;;44.50;35.00;;;;;21.18;100.00;100358.31;6214091;22;45153;-81
2022/08/16 01:34:48;;;;;;;;;40.25;36.00;;;;;21.19;100.00;100361.84;6213626;22;44769;-81
2022/08/16 01:37:14;;;;;;;;;41.50;36.50;;;;;21.20;100.00;100364.34;6212965;22;45470;-81
2022/08/16 01:39:41;;;;;;;;;37.00;33.00;;;;;21.21;100.00;100357.94;6212532;22;45398;-81
2022/08/16 01:42:08;;;;;;;;;42.25;37.00;;;;;21.24;100.00;100360.28;6212443;22;45402;-80
2022/08/16 01:44:36;;;;;;;;;38.00;34.50;;;;;21.27;100.00;100351.81;6210507;22;44766;-80
2022/08/16 01:47:02;;;;;;;;;36.00;34.00;;;;;21.28;100.00;100358.91;6211348;22;45457;-80
2022/08/16 01:49:35;;;;;;;;;41.75;34.00;;;;;21.29;100.00;100357.88;6213123;22;44662;-81
2022/08/16 01:52:06;;;;;;;;;37.50;34.25;;;;;21.29;100.00;100352.47;6185356;22;44911;-80
2022/08/16 01:54:32;;;;;;;;;33.00;31.50;;;;;21.31;100.00;100360.41;6212101;22;45429;-80
2022/08/16 01:56:59;;;;;;;;;41.25;35.50;;;;;21.33;100.00;100355.69;6212690;22;45315;-80
2022/08/16 01:59:25;;;;;;;;;36.25;34.25;;;;;21.35;100.00;100358.19;6212785;22;45251;-80
2022/08/16 02:01:52;;;;;;;;;36.00;34.00;;;;;21.35;100.00;100361.72;6214049;22;45166;-81
2022/08/16 02:04:19;;;;;;;;;40.00;35.00;;;;;21.37;100.00;100359.72;6214263;22;45298;-81
2022/08/16 02:06:44;;;;;;;;;37.50;34.50;;;;;21.38;100.00;100363.25;6214471;22;44774;-80
2022/08/16 02:09:11;;;;;;;;;35.00;33.00;;;;;21.39;100.00;100359.50;6215200;22;44738;-80
2022/08/16 02:11:38;;;;;;;;;41.50;35.25;;;;;21.37;100.00;100362.41;6215087;22;45498;-81
2022/08/16 02:14:05;;;;;;;;;41.00;34.75;;;;;21.40;100.00;100363.88;6214831;22;44663;-81
2022/08/16 02:16:30;;;;;;;;;40.75;35.75;;;;;21.39;100.00;100360.34;6215394;22;44676;-80
2022/08/16 02:18:56;;;;;;;;;36.25;34.00;;;;;21.38;100.00;100366.78;6216032;22;45259;-81
2022/08/16 02:21:21;;;;;;;;;33.00;30.75;;;;;21.38;100.00;100361.38;6217171;22;45404;-82
2022/08/16 02:23:47;;;;;;;;;35.50;32.75;;;;;21.36;100.00;100359.88;6218876;22;45145;-80
2022/08/16 02:26:14;;;;;;;;;38.50;34.00;;;;;21.36;100.00;100357.16;6218713;22;45080;-81
2022/08/16 02:28:40;;;;;;;;;37.00;33.25;;;;;21.35;100.00;100352.78;6214422;22;45409;-80
2022/08/16 02:31:09;;;;;;;;;38.75;32.75;;;;;21.34;100.00;100354.66;6213493;22;45465;-82
2022/08/16 02:33:36;;;;;;;;;39.25;35.25;;;;;21.35;100.00;100339.28;6215011;22;45348;-81
2022/08/16 02:36:02;;;;;;;;;37.25;33.50;;;;;21.33;100.00;100335.94;6213513;22;44735;-81
2022/08/16 02:38:29;;;;;;;;;36.25;32.75;;;;;21.34;100.00;100334.91;6213699;22;44576;-80
2022/08/16 02:40:56;;;;;;;;;38.25;34.75;;;;;21.33;100.00;100322.41;6212711;22;45600;-80
2022/08/16 02:43:26;;;;;;;;;44.00;37.25;;;;;21.33;100.00;100317.00;6186473;22;44789;-79
2022/08/16 02:45:52;;;;;;;;;44.50;37.25;;;;;21.31;100.00;100306.38;6212467;22;45208;-79
2022/08/16 02:48:17;;;;;;;;;39.75;35.25;;;;;21.28;100.00;100302.16;6213602;22;45181;-79
2022/08/16 02:50:44;;;;;;;;;36.00;33.25;;;;;21.27;100.00;100305.88;6213117;22;50143;-80
2022/08/16 02:53:10;;;;;;;;;40.00;34.50;;;;;21.27;100.00;100314.00;6212853;22;44827;-80
2022/08/16 02:55:35;;;;;;;;;39.67;34.33;;;;;21.25;100.00;100321.41;6213805;22;45453;-79
2022/08/16 02:58:01;;;;;;;;;35.75;32.50;;;;;21.25;100.00;100320.59;6213551;22;45192;-81
2022/08/16 03:00:26;;;;;;;;;42.50;35.25;;;;;21.22;100.00;100310.97;6214648;22;44865;-82
2022/08/16 03:02:54;;;;;;;;;39.00;35.75;;;;;21.20;100.00;100304.91;6213611;22;45463;-80
2022/08/16 03:05:22;;;;;;;;;42.00;37.50;;;;;21.21;100.00;100294.94;6213670;22;45303;-81
2022/08/16 03:07:48;;;;;;;;;39.75;34.50;;;;;21.21;100.00;100300.34;6213212;22;44785;-80
2022/08/16 03:10:13;;;;;;;;;35.25;33.25;;;;;21.21;100.00;100294.94;6213034;22;45248;-80
2022/08/16 03:12:39;;;;;;;;;39.75;34.25;;;;;21.22;100.00;100302.03;6212879;22;45064;-81
2022/08/16 03:15:09;;;;;;;;;35.25;32.25;;;;;21.20;100.00;100306.78;6213662;22;44686;-80
2022/08/16 03:17:34;;;;;;;;;39.25;34.50;;;;;21.19;100.00;100308.66;6214237;22;44715;-80
2022/08/16 03:20:00;;;;;;;;;44.25;35.50;;;;;21.18;100.00;100298.03;6213014;22;45331;-80
2022/08/16 03:22:25;;;;;;;;;38.00;33.50;;;;;21.19;100.00;100308.66;6214036;22;45270;-80
2022/08/16 03:24:51;;;;;;;;;34.50;33.00;;;;;21.18;100.00;100315.06;6215605;22;45133;-81
2022/08/16 03:27:16;;;;;;;;;39.00;34.50;;;;;21.19;100.00;100319.47;6214561;22;49337;-80
2022/08/16 03:29:42;;;;;;;;;48.25;37.25;;;;;21.19;100.00;100327.56;6214048;22;45259;-81
2022/08/16 03:32:08;;;;;;;;;32.25;31.50;;;;;21.18;100.00;100325.88;6187132;22;45180;-81
2022/08/16 03:34:33;;;;;;;;;40.75;35.75;;;;;21.17;100.00;100317.94;6213759;22;45283;-79
2022/08/16 03:37:00;;;;;;;;;41.75;34.75;;;;;21.17;100.00;100323.34;6214279;22;44866;-79
2022/08/16 03:39:27;;;;;;;;;36.50;34.25;;;;;21.13;100.00;100322.03;6213651;22;45307;-80
2022/08/16 03:41:53;;;;;;;;;42.00;35.50;;;;;21.09;100.00;100318.03;6186338;22;45550;-81
2022/08/16 03:44:18;;;;;;;;;44.33;36.33;;;;;21.06;100.00;100330.03;6191623;22;44766;-80
2022/08/16 03:46:44;;;;;;;;;47.25;38.75;;;;;20.99;100.00;100332.63;6219982;22;45670;-83
2022/08/16 03:49:10;;;;;;;;;45.25;37.00;;;;;20.96;100.00;100346.47;6214484;22;45137;-80
2022/08/16 03:51:37;;;;;;;;;42.00;36.67;;;;;20.90;100.00;100346.34;6213581;22;45108;-80
2022/08/16 03:54:03;;;;;;;;;40.67;35.67;;;;;20.81;100.00;100353.66;6217374;22;44632;-80
2022/08/16 03:56:29;;;;;;;;;41.00;37.25;;;;;20.76;100.00;100358.75;6215555;22;45352;-81
2022/08/16 03:58:55;;;;;;;;;43.00;36.00;;;;;20.70;100.00;100357.63;6215244;22;45142;-80
2022/08/16 04:01:22;;;;;;;;;39.25;34.50;;;;;20.66;100.00;100355.44;6215348;22;44785;-80
2022/08/16 04:03:47;;;;;;;;;40.25;36.00;;;;;20.61;100.00;100360.53;6214062;22;44755;-81
2022/08/16 04:06:12;;;;;;;;;38.25;34.50;;;;;20.58;100.00;100359.03;6187446;22;44762;-81
2022/08/16 04:08:38;;;;;;;;;39.75;32.75;;;;;20.55;100.00;100351.31;6213123;22;45401;-79
2022/08/16 04:11:03;;;;;;;;;42.50;34.50;;;;;20.51;100.00;100349.97;6214521;22;44683;-80
2022/08/16 04:13:29;;;;;;;;;37.00;34.50;;;;;20.48;100.00;100356.53;6214689;22;44754;-80
2022/08/16 04:15:58;;;;;;;;;40.75;34.25;;;;;20.46;100.00;100352.31;6212807;22;44838;-82
2022/08/16 04:18:23;;;;;;;;;40.50;34.75;;;;;20.45;100.00;100354.19;6213305;22;45153;-81
2022/08/16 04:20:48;;;;;;;;;36.00;32.50;;;;;20.44;100.00;100354.34;6214754;22;45145;-78
2022/08/16 04:23:14;;;;;;;;;38.50;35.00;;;;;20.44;100.00;100352.47;6219315;22;45964;-82
2022/08/16 04:25:42;;;;;;;;;37.25;32.75;;;;;20.43;100.00;100352.66;6219109;22;45409;-80
2022/08/16 04:28:08;;;;;;;;;39.75;34.50;;;;;20.41;100.00;100357.41;6213172;22;45278;-80
2022/08/16 04:30:33;;;;;;;;;37.00;33.75;;;;;20.41;100.00;100358.25;6213112;22;45428;-80
2022/08/16 04:32:59;;;;;;;;;37.00;32.75;;;;;20.41;100.00;100347.44;6213742;22;45290;-80
2022/08/16 04:35:25;;;;;;;;;38.00;33.75;;;;;20.42;100.00;100356.38;6214032;22;45325;-80
2022/08/16 04:37:52;;;;;;;;;39.50;33.25;;;;;20.42;100.00;100357.22;6216942;22;45409;-81
2022/08/16 04:40:18;;;;;;;;;34.75;33.00;;;;;20.44;100.00;100354.34;6213825;22;45366;-80
2022/08/16 04:42:44;;;;;;;;;37.50;32.75;;;;;20.44;100.00;100357.03;6213103;22;45479;-81
2022/08/16 04:45:13;;;;;;;;;38.25;35.25;;;;;20.46;100.00;100353.16;6212821;22;45299;-82
2022/08/16 04:47:40;;;;;;;;;34.00;32.75;;;;;20.47;100.00;100359.44;6214217;22;45376;-81
2022/08/16 04:50:12;;;;;;;;;42.00;34.25;;;;;20.48;100.00;100356.53;6216965;22;45215;-81
2022/08/16 04:52:37;;;;;;;;;34.25;31.00;;;;;20.48;100.00;100359.25;6215972;22;44867;-81
2022/08/16 04:55:06;;;;;;;;;34.75;33.00;;;;;20.49;100.00;100360.91;6184216;22;45409;-80
2022/08/16 04:57:32;;;;;;;;;34.50;33.00;;;;;20.51;100.00;100366.16;6186136;22;45464;-81
2022/08/16 04:59:57;;;;;;;;;38.75;35.50;;;;;20.56;100.00;100371.03;6213689;22;45126;-81
2022/08/16 05:02:22;;;;;;;;;34.00;32.25;;;;;20.59;100.00;100359.84;6213303;22;45216;-79
2022/08/16 05:04:48;;;;;;;;;34.50;32.50;;;;;20.64;100.00;100368.25;6185857;22;45593;-81
2022/08/16 05:07:13;;;;;;;;;34.25;30.75;;;;;20.65;100.00;100362.72;6212770;22;45027;-81
2022/08/16 05:09:38;;;;;;;;;36.50;33.25;;;;;20.67;100.00;100359.81;6212664;22;45208;-81
2022/08/16 05:12:04;;;;;;;;;38.75;34.25;;;;;20.68;100.00;100380.41;6186346;22;45308;-80
2022/08/16 05:14:29;;;;;;;;;34.75;32.75;;;;;20.69;100.00;100382.06;6188436;22;45472;-80
2022/08/16 05:16:55;;;;;;;;;39.00;34.75;;;;;20.70;100.00;100378.38;6215336;22;45350;-81
2022/08/16 05:19:20;;;;;;;;;28.00;26.50;;;;;20.71;100.00;100371.94;6214226;22;45191;-81
2022/08/16 05:21:46;;;;;;;;;46.00;34.75;;;;;20.75;100.00;100374.13;6212676;22;45200;-81
2022/08/16 05:24:11;;;;;;;;;31.75;30.75;;;;;20.81;100.00;100399.56;6213177;22;45371;-80
2022/08/16 05:26:36;;;;;;;;;36.50;32.50;;;;;20.84;100.00;100407.31;6213178;22;45247;-82
2022/08/16 05:29:02;;;;;;;;;35.75;32.50;;;;;20.87;100.00;100411.50;6213326;22;45330;-82
2022/08/16 05:31:28;;;;;;;;;34.75;31.00;;;;;20.91;100.00;100410.16;6213580;22;44672;-81
2022/08/16 05:33:54;;;;;;;;;33.75;32.00;;;;;20.95;100.00;100408.78;6212549;22;45260;-82
2022/08/16 05:36:19;;;;;;;;;37.25;32.50;;;;;21.00;100.00;100399.09;6214134;22;45107;-81
2022/08/16 05:38:46;;;;;;;;;36.75;31.50;;;;;21.08;100.00;100402.75;6215223;22;44775;-81
2022/08/16 05:41:11;;;;;;;;;39.25;34.50;;;;;21.11;100.00;100397.84;6187392;22;45273;-83
2022/08/16 05:43:37;;;;;;;;;33.25;32.50;;;;;21.14;100.00;100399.38;6217112;22;44841;-81
2022/08/16 05:46:03;;;;;;;;;36.50;33.00;;;;;21.15;100.00;100393.78;6215017;22;45253;-81
2022/08/16 05:48:28;;;;;;;;;37.00;33.25;;;;;21.17;100.00;100404.38;6214726;22;44638;-80
2022/08/16 05:50:56;;;;;;;;;37.25;34.00;;;;;21.20;100.00;100404.88;6215849;22;45251;-82
2022/08/16 05:53:22;;;;;;;;;34.75;32.50;;;;;21.20;100.00;100410.28;6214266;22;44770;-81
2022/08/16 05:55:47;;;;;;;;;35.75;33.75;;;;;21.25;100.00;100410.59;6185937;22;45472;-82
2022/08/16 05:58:13;;;;;;;;;33.50;32.25;;;;;21.29;100.00;100403.81;6214887;22;44730;-81
2022/08/16 06:00:38;;;;;;;;;30.50;27.50;;;;;21.37;100.00;100410.19;6216172;22;45272;-81
2022/08/16 06:03:04;;;;;;;;;36.25;32.25;;;;;21.44;100.00;100411.16;6215234;22;45283;-81
2022/08/16 06:05:29;;;;;;;;;33.25;31.50;;;;;21.54;100.00;100419.84;6187640;22;45251;-80
2022/08/16 06:07:55;;;;;;;;;38.00;31.00;;;;;21.61;100.00;100418.09;6215727;22;44667;-80
2022/08/16 06:10:21;;;;;;;;;34.25;31.00;;;;;21.70;100.00;100424.28;6215884;22;45196;-80
2022/08/16 06:12:46;;;;;;;;;36.25;32.00;;;;;21.77;100.00;100436.06;6215554;22;45252;-80
2022/08/16 06:15:15;;;;;;;;;30.25;30.25;;;;;21.88;100.00;100435.59;6214113;22;45287;-80
2022/08/16 06:17:41;;;;;;;;;34.60;30.40;;;;;21.98;100.00;100438.03;6215473;22;45402;-81
2022/08/16 06:20:07;;;;;;;;;35.00;30.50;;;;;22.07;100.00;100436.94;6215302;22;45402;-81
2022/08/16 06:22:36;;;;;;;;;30.00;27.00;;;;;22.19;100.00;100434.63;6214835;22;44820;-79
2022/08/16 06:25:02;;;;;;;;;29.50;28.75;;;;;22.36;100.00;100425.31;6186366;22;46780;-81
2022/08/16 06:27:28;;;;;;;;;30.75;30.50;;;;;22.55;100.00;100426.63;6215263;22;45239;-81
2022/08/16 06:29:53;;;;;;;;;35.25;31.50;;;;;22.71;100.00;100425.56;6214991;22;45205;-80
2022/08/16 06:32:19;;;;;;;;;30.00;30.00;;;;;22.79;100.00;100428.19;6215459;22;44725;-79
2022/08/16 06:34:44;;;;;;;;;32.75;29.75;;;;;22.81;100.00;100423.38;6215297;22;45118;-80
2022/08/16 06:37:09;;;;;;;;;33.50;29.00;;;;;22.83;100.00;100421.34;6214801;22;45212;-80
2022/08/16 06:39:35;;;;;;;;;34.50;31.50;;;;;22.80;100.00;100414.44;6214575;22;44723;-80
2022/08/16 06:42:00;;;;;;;;;28.25;28.25;;;;;22.82;100.00;100409.69;6215426;22;45533;-80
2022/08/16 06:44:26;;;;;;;;;17.50;13.50;;;;;22.81;100.00;100399.84;6215498;22;45160;-81
2022/08/16 06:46:51;;;;;;;;;31.25;29.25;;;;;22.80;100.00;100403.59;6215583;22;45397;-80
2022/08/16 06:49:16;;;;;;;;;27.50;26.00;;;;;22.80;100.00;100417.13;6215790;22;45297;-79
2022/08/16 06:51:42;;;;;;;;;33.00;32.25;;;;;22.81;100.00;100424.22;6217474;22;45178;-80
2022/08/16 06:54:08;;;;;;;;;28.50;28.50;;;;;22.81;100.00;100416.09;6223648;22;45122;-81
2022/08/16 06:56:35;;;;;;;;;36.00;32.75;;;;;22.87;100.00;100414.53;6222558;22;44975;-80
2022/08/16 06:59:00;;;;;;;;;36.50;32.75;;;;;22.90;100.00;100419.56;6193843;22;45340;-81
2022/08/16 07:01:26;;;;;;;;;29.50;28.75;;;;;22.96;100.00;100416.09;6219545;22;44691;-79
2022/08/16 07:03:51;;;;;;;;;32.25;27.50;;;;;23.01;100.00;100420.94;6219712;22;45252;-80
2022/08/16 07:06:18;;;;;;;;;34.25;29.75;;;;;23.02;100.00;100420.78;6189658;22;44727;-81
2022/08/16 07:08:45;;;;;;;;;32.50;27.00;;;;;23.02;100.00;100414.53;6215643;22;45197;-80
2022/08/16 07:11:12;;;;;;;;;27.25;26.00;;;;;23.04;100.00;100418.69;6213861;22;45224;-81
2022/08/16 07:13:38;;;;;;;;;34.25;27.00;;;;;23.05;100.00;100417.66;6215781;22;45247;-81
2022/08/16 07:16:04;;;;;;;;;27.00;26.75;;;;;23.06;100.00;100419.38;6214972;22;44789;-81
2022/08/16 07:18:32;;;;;;;;;31.00;27.75;;;;;23.09;100.00;100424.38;6187451;22;45209;-80
2022/08/16 07:20:58;;;;;;;;;28.00;27.25;;;;;23.09;100.00;100418.97;6215413;22;44864;-82
2022/08/16 07:23:25;;;;;;;;;26.25;24.50;;;;;23.12;100.00;100420.47;6212972;22;45400;-81
2022/08/16 07:25:52;;;;;;;;;25.80;25.40;;;;;23.17;100.00;100422.59;6214260;22;44721;-81
2022/08/16 07:28:17;;;;;;;;;27.00;23.50;;;;;23.21;100.00;100424.72;6214917;22;45141;-82
2022/08/16 07:30:45;;;;;;;;;29.00;25.75;;;;;23.30;100.00;100431.69;6214178;22;45365;-81
2022/08/16 07:33:11;;;;;;;;;27.50;25.25;;;;;23.38;100.00;100428.00;6214148;22;45478;-80
2022/08/16 07:35:37;;;;;;;;;35.60;24.00;;;;;23.50;100.00;100428.34;6214543;22;45219;-81
2022/08/16 07:38:05;;;;;;;;;25.00;22.25;;;;;23.60;100.00;100437.00;6213756;22;44604;-81
2022/08/16 07:40:31;;;;;;;;;26.75;26.00;;;;;23.70;100.00;100440.25;6187258;22;45322;-81
2022/08/16 07:42:57;;;;;;;;;26.00;24.75;;;;;23.76;100.00;100435.91;6211320;22;45554;-81
2022/08/16 07:45:22;;;;;;;;;29.50;24.50;;;;;23.83;100.00;100440.31;6214288;22;45254;-81
2022/08/16 07:47:48;;;;;;;;;28.00;23.25;;;;;23.91;100.00;100435.81;6214167;22;45243;-81
2022/08/16 07:50:15;;;;;;;;;29.75;23.75;;;;;23.98;100.00;100439.41;6216849;22;45306;-82
2022/08/16 07:52:42;;;;;;;;;27.00;26.50;;;;;23.99;100.00;100435.66;6213849;22;45283;-80
2022/08/16 07:55:09;;;;;;;;;16.80;16.80;;;;;24.00;100.00;100429.19;6187758;22;44742;-80
2022/08/16 07:57:34;;;;;;;;;25.25;21.75;;;;;24.04;100.00;100434.03;6213888;22;44775;-82
2022/08/16 08:00:00;;;;;;;;;24.00;23.00;;;;;24.12;100.00;100430.31;6216135;22;44714;-81
2022/08/16 08:02:28;;;;;;;;;25.75;23.75;;;;;24.19;100.00;100442.06;6215170;22;45073;-80
2022/08/16 08:04:55;;;;;;;;;28.80;25.60;;;;;24.27;100.00;100444.63;6215228;22;44758;-81
2022/08/16 08:07:23;;;;;;;;;27.25;24.25;;;;;24.36;100.00;100437.19;6216024;22;45244;-79
2022/08/16 08:09:49;;;;;;;;;21.00;21.00;;;;;24.47;100.00;100428.47;6215658;22;44874;-82
2022/08/16 08:12:14;;;;;;;;;26.50;26.50;;;;;24.62;100.00;100433.78;6188410;22;46673;-81
2022/08/16 08:14:39;;;;;;;;;25.25;23.25;;;;;24.78;100.00;100427.97;6214053;22;44642;-81
2022/08/16 08:17:06;;;;;;;;;26.75;23.25;;;;;24.96;100.00;100432.03;6214578;22;45185;-81
2022/08/16 08:19:34;;;;;;;;;21.00;20.50;;;;;25.10;100.00;100420.19;6214489;22;45196;-81
2022/08/16 08:22:00;;;;;;;;;21.80;21.80;;;;;25.21;100.00;100418.75;6213770;22;45176;-80
2022/08/16 08:24:26;;;;;;;;;25.00;23.80;;;;;25.30;100.00;100420.22;6215288;22;45085;-80
2022/08/16 08:26:55;;;;;;;;;20.50;19.00;;;;;25.32;100.00;100423.56;6215484;22;45198;-80
2022/08/16 08:29:20;;;;;;;;;25.50;21.50;;;;;25.42;100.00;100421.28;6185706;22;44953;-81
2022/08/16 08:31:45;;;;;;;;;27.25;21.75;;;;;25.44;100.00;100434.69;6213501;22;45235;-79
2022/08/16 08:34:11;;;;;;;;;18.75;17.00;;;;;25.47;100.00;100434.25;6187204;22;44818;-81
2022/08/16 08:36:36;;;;;;;;;22.25;21.25;;;;;25.59;100.00;100441.59;6215406;22;44828;-82
2022/08/16 08:39:03;;;;;;;;;20.25;15.75;;;;;25.77;100.00;100440.16;6188358;22;44835;-81
2022/08/16 08:41:29;;;;;;;;;19.80;18.60;;;;;25.96;100.00;100435.75;6217423;22;45108;-81
2022/08/16 08:43:56;;;;;;;;;20.25;16.75;;;;;26.12;100.00;100433.44;6217072;22;44766;-82
2022/08/16 08:46:24;;;;;;;;;20.40;17.40;;;;;26.35;100.00;100438.44;6187934;22;44752;-80
2022/08/16 08:48:51;;;;;;;;;18.00;16.80;;;;;26.62;100.00;100438.38;6213823;22;44865;-82
2022/08/16 08:51:17;;;;;;;;;20.00;16.80;;;;;26.85;100.00;100435.97;6213608;22;45480;-81
2022/08/16 08:53:44;;;;;;;;;17.40;16.60;;;;;27.04;100.00;100442.38;6214260;22;44825;-80
2022/08/16 08:56:11;;;;;;;;;20.00;17.60;;;;;27.18;100.00;100435.00;6213565;22;44632;-81
2022/08/16 08:58:37;;;;;;;;;18.20;15.00;;;;;27.32;100.00;100435.72;6215414;22;44680;-82
2022/08/16 09:01:06;;;;;;;;;15.50;15.50;;;;;27.32;100.00;100433.00;6215504;22;45230;-81
2022/08/16 09:03:33;;;;;;;;;17.00;17.00;;;;;27.37;100.00;100431.31;6214738;22;44718;-81
2022/08/16 09:05:59;;;;;;;;;16.00;15.80;;;;;27.44;100.00;100430.41;6214231;22;44776;-81
2022/08/16 09:08:25;;;;;;;;;13.00;13.00;;;;;27.49;100.00;100434.16;6213463;22;44758;-82
2022/08/16 09:10:54;;;;;;;;;17.20;15.60;;;;;27.56;100.00;100445.00;6213635;22;44979;-81
2022/08/16 09:13:20;;;;;;;;;18.80;16.20;;;;;27.63;100.00;100438.44;6214029;22;44702;-79
2022/08/16 09:15:47;;;;;;;;;21.80;17.80;;;;;27.70;100.00;100443.84;6187177;22;44753;-84
2022/08/16 09:18:16;;;;;;;;;15.80;14.60;;;;;27.70;100.00;100448.47;6219013;22;44758;-81
2022/08/16 09:20:42;;;;;;;;;19.40;19.40;;;;;27.68;100.00;100445.97;6219352;22;45477;-82
2022/08/16 09:23:07;;;;;;;;;16.75;16.00;;;;;27.59;100.00;100455.50;6191963;22;44612;-81
2022/08/16 09:25:33;;;;;;;;;18.50;16.25;;;;;27.53;100.00;100459.94;6215193;22;44619;-81
2022/08/16 09:27:59;;;;;;;;;16.75;16.75;;;;;27.52;100.00;100462.91;6214883;22;44745;-81
2022/08/16 09:30:25;;;;;;;;;16.75;15.75;;;;;27.68;100.00;100457.72;6216418;22;45051;-79
2022/08/16 09:32:53;;;;;;;;;17.00;16.40;;;;;27.85;100.00;100468.13;6214426;22;45373;-82
2022/08/16 09:35:21;;;;;;;;;18.40;18.20;;;;;28.01;100.00;100461.28;6214265;22;44675;-81
2022/08/16 09:37:47;;;;;;;;;15.80;14.60;;;;;28.21;100.00;100466.56;6214580;22;44743;-82
2022/08/16 09:40:13;;;;;;;;;17.75;16.50;;;;;28.38;100.00;100456.72;6214221;22;45348;-81
2022/08/16 09:42:39;;;;;;;;;17.00;16.40;;;;;28.54;100.00;100455.31;6213488;22;44812;-80
2022/08/16 09:45:07;;;;;;;;;19.00;19.00;;;;;28.67;100.00;100456.00;6214513;22;44716;-81
2022/08/16 09:47:39;;;;;;;;;40.25;34.50;;;;;28.73;100.00;100459.72;6213949;22;44802;-81
2022/08/16 09:50:09;;;;;;;;;23.80;22.00;;;;;28.68;100.00;100459.56;6188736;22;45377;-81
2022/08/16 09:52:36;;;;;;;;;24.00;18.20;;;;;28.63;100.00;100446.56;6214178;22;44638;-81
2022/08/16 09:55:07;;;;;;;;;14.40;14.00;;;;;28.64;100.00;100447.41;6214842;22;44785;-83
2022/08/16 09:57:33;;;;;;;;;18.00;17.20;;;;;28.72;100.00;100443.50;6213858;22;45512;-80
2022/08/16 10:00:01;;;;;;;;;21.60;18.00;;;;;28.81;100.00;100453.06;6213445;22;45231;-82
2022/08/16 10:02:28;;;;;;;;;18.80;16.80;;;;;28.89;100.00;100463.72;6214103;22;44598;-83
2022/08/16 10:04:55;;;;;;;;;17.60;16.20;;;;;28.89;100.00;100467.28;6215040;22;44588;-83
2022/08/16 10:07:22;;;;;;;;;20.00;18.80;;;;;28.93;100.00;100462.19;6216087;22;44785;-83
2022/08/16 10:09:47;;;;;;;;;13.80;11.60;;;;;28.99;100.00;100466.75;6214794;22;45037;-82
2022/08/16 10:14:56;;;;;;;;;18.60;15.40;;;;;29.07;100.00;100460.16;6215774;22;44765;-83
2022/08/16 10:17:23;;;;;;;;;14.25;14.25;;;;;29.07;100.00;100469.19;6214987;22;44758;-82
2022/08/16 10:19:50;;;;;;;;;13.60;13.40;;;;;29.05;100.00;100465.00;6215209;22;44928;-82
2022/08/16 10:22:16;;;;;;;;;15.00;15.00;;;;;28.93;100.00;100467.66;6215247;22;44705;-83
2022/08/16 10:24:42;;;;;;;;;19.00;18.40;;;;;28.83;100.00;100465.47;6216040;22;44710;-82
2022/08/16 10:27:07;;;;;;;;;16.00;14.00;;;;;28.74;100.00;100464.09;6217408;22;45072;-82
2022/08/16 10:29:33;;;;;;;;;11.00;10.00;;;;;28.71;100.00;100470.00;6217829;22;45475;-82
2022/08/16 10:31:59;;;;;;;;;18.00;17.00;;;;;28.66;100.00;100467.97;6218823;22;44723;-81
2022/08/16 10:34:24;;;;;;;;;16.40;14.60;;;;;28.65;100.00;100471.78;6220061;22;44722;-83
2022/08/16 10:36:50;;;;;;;;;17.00;17.00;;;;;28.66;100.00;100469.88;6218767;22;45095;-83
2022/08/16 10:39:15;;;;;;;;;16.00;15.00;;;;;28.66;100.00;100461.66;6218728;22;45061;-83
2022/08/16 10:41:41;;;;;;;;;16.25;14.75;;;;;28.82;100.00;100457.50;6215061;22;44778;-83
2022/08/16 10:44:07;;;;;;;;;15.25;15.25;;;;;28.94;100.00;100459.25;6215748;22;45024;-82
2022/08/16 10:46:33;;;;;;;;;15.00;13.75;;;;;28.92;100.00;100457.78;6214866;22;44937;-82
2022/08/16 10:48:59;;;;;;;;;15.40;15.40;;;;;29.00;100.00;100462.13;6215297;22;45200;-83
2022/08/16 10:51:24;;;;;;;;;8.50;7.25;;;;;29.17;100.00;100454.97;6216360;22;44759;-83
2022/08/16 10:53:49;;;;;;;;;16.75;16.00;;;;;29.19;100.00;100461.03;6216306;22;44905;-83
2022/08/16 10:56:15;;;;;;;;;19.00;16.75;;;;;29.19;100.00;100461.84;6215593;22;44811;-83
2022/08/16 10:58:40;;;;;;;;;16.50;13.25;;;;;29.21;100.00;100456.16;6217594;22;45078;-83
2022/08/16 11:01:08;;;;;;;;;16.25;15.25;;;;;29.26;100.00;100466.41;6218886;22;44612;-83